createdAt,value
2022-08-29T00:00:21.220Z,11.72
2022-08-29T00:02:48.283Z,11.73
2022-08-29T00:05:14.696Z,11.58
2022-08-29T00:07:41.122Z,11.54
2022-08-29T00:10:07.880Z,11.42
2022-08-29T00:12:34.245Z,11.64
2022-08-29T00:15:00.703Z,11.50
2022-08-29T00:17:27.054Z,11.53
2022-08-29T00:19:53.440Z,11.33
2022-08-29T00:22:19.812Z,11.30
2022-08-29T00:24:46.330Z,11.29
2022-08-29T00:27:12.697Z,11.28
2022-08-29T00:29:39.745Z,11.33
2022-08-29T00:32:06.207Z,11.26
2022-08-29T00:34:32.686Z,11.22
2022-08-29T00:36:59.056Z,11.25
2022-08-29T00:39:25.452Z,11.12
2022-08-29T00:41:53.271Z,11.09
2022-08-29T00:44:19.861Z,11.12
2022-08-29T00:46:47.444Z,11.18
2022-08-29T00:49:19.175Z,11.23
2022-08-29T00:51:45.535Z,11.44
2022-08-29T00:54:11.915Z,11.26
2022-08-29T00:56:38.813Z,11.26
2022-08-29T00:59:14.362Z,11.21
2022-08-29T01:01:40.729Z,11.27
2022-08-29T01:04:09.833Z,11.17
2022-08-29T01:06:42.503Z,11.27
2022-08-29T01:09:08.892Z,11.17
2022-08-29T01:11:54.120Z,11.26
2022-08-29T01:14:20.906Z,11.37
2022-08-29T01:16:47.359Z,11.55
2022-08-29T01:19:27.854Z,11.35
2022-08-29T01:21:59.941Z,11.37
2022-08-29T01:24:43.705Z,11.32
2022-08-29T01:27:10.089Z,11.23
2022-08-29T01:29:36.500Z,11.12
2022-08-29T01:32:03.182Z,11.07
2022-08-29T01:34:29.644Z,11.03
2022-08-29T01:37:00.048Z,11.06
2022-08-29T01:39:27.783Z,11.19
2022-08-29T01:41:54.220Z,11.33
2022-08-29T01:44:20.901Z,11.26
2022-08-29T01:46:48.054Z,11.00
2022-08-29T01:49:14.571Z,10.90
2022-08-29T01:51:41.310Z,11.11
2022-08-29T01:54:07.919Z,10.88
2022-08-29T01:56:35.124Z,10.89
2022-08-29T01:59:01.765Z,10.92
2022-08-29T02:01:32.995Z,10.92
2022-08-29T02:03:59.434Z,10.94
2022-08-29T02:06:26.068Z,10.90
2022-08-29T02:08:52.422Z,10.89
2022-08-29T02:11:18.779Z,10.83
2022-08-29T02:13:46.467Z,10.87
2022-08-29T02:16:13.207Z,10.82
2022-08-29T02:18:42.332Z,10.66
2022-08-29T02:21:08.907Z,10.62
2022-08-29T02:23:35.546Z,10.62
2022-08-29T02:26:01.905Z,10.57
2022-08-29T02:28:30.605Z,10.60
2022-08-29T02:30:57.153Z,10.58
2022-08-29T02:33:23.522Z,10.68
2022-08-29T02:35:49.894Z,10.48
2022-08-29T02:38:16.356Z,10.39
2022-08-29T02:40:42.782Z,10.38
2022-08-29T02:43:09.169Z,10.51
2022-08-29T02:45:40.161Z,10.67
2022-08-29T02:48:06.674Z,10.84
2022-08-29T02:50:33.318Z,10.79
2022-08-29T02:52:59.698Z,10.69
2022-08-29T02:55:26.109Z,10.70
2022-08-29T02:57:52.995Z,10.64
2022-08-29T03:00:20.456Z,10.49
2022-08-29T03:02:47.350Z,10.41
2022-08-29T03:05:14.355Z,10.36
2022-08-29T03:07:40.697Z,10.53
2022-08-29T03:10:07.560Z,10.56
2022-08-29T03:12:34.516Z,10.49
2022-08-29T03:15:00.936Z,10.48
2022-08-29T03:17:27.285Z,10.56
2022-08-29T03:19:53.667Z,10.73
2022-08-29T03:22:20.005Z,10.95
2022-08-29T03:24:46.506Z,11.02
2022-08-29T03:27:12.979Z,11.09
2022-08-29T03:29:39.400Z,10.99
2022-08-29T03:32:05.755Z,10.81
2022-08-29T03:34:32.960Z,10.68
2022-08-29T03:36:59.315Z,10.50
2022-08-29T03:39:25.686Z,10.27
2022-08-29T03:41:52.034Z,10.24
2022-08-29T03:44:18.381Z,10.21
2022-08-29T03:46:44.755Z,10.23
2022-08-29T03:49:13.144Z,10.43
2022-08-29T03:51:39.497Z,10.44
2022-08-29T03:54:06.027Z,10.33
2022-08-29T03:56:32.576Z,10.39
2022-08-29T03:58:58.931Z,10.42
2022-08-29T04:01:26.855Z,10.52
2022-08-29T04:03:53.287Z,10.57
2022-08-29T04:06:19.683Z,10.59
2022-08-29T04:08:47.214Z,10.56
2022-08-29T04:11:14.137Z,10.63
2022-08-29T04:13:40.724Z,10.39
2022-08-29T04:16:17.602Z,10.44
2022-08-29T04:18:44.014Z,10.58
2022-08-29T04:21:10.454Z,10.70
2022-08-29T04:23:37.296Z,10.72
2022-08-29T04:26:30.149Z,10.69
2022-08-29T04:28:50.085Z,10.82
2022-08-29T04:31:21.174Z,10.91
2022-08-29T04:33:47.851Z,10.95
2022-08-29T04:36:15.037Z,10.92
2022-08-29T04:38:41.599Z,10.98
2022-08-29T04:41:08.187Z,11.07
2022-08-29T04:43:34.556Z,11.25
2022-08-29T04:46:00.965Z,11.28
2022-08-29T04:48:27.487Z,11.33
2022-08-29T04:50:57.147Z,11.44
2022-08-29T04:53:23.956Z,11.49
2022-08-29T04:55:59.798Z,11.54
2022-08-29T04:58:26.157Z,11.56
2022-08-29T05:00:52.887Z,11.66
2022-08-29T05:03:19.818Z,11.72
2022-08-29T05:05:46.191Z,11.81
2022-08-29T05:08:12.629Z,11.93
2022-08-29T05:10:39.493Z,11.95
2022-08-29T05:13:05.839Z,12.13
2022-08-29T05:15:32.305Z,12.23
2022-08-29T05:17:58.683Z,12.26
2022-08-29T05:20:25.055Z,12.44
2022-08-29T05:22:51.416Z,12.51
2022-08-29T05:25:18.629Z,12.55
2022-08-29T05:27:45.382Z,12.53
2022-08-29T05:30:11.805Z,12.48
2022-08-29T05:32:39.101Z,12.53
2022-08-29T05:35:05.657Z,12.54
2022-08-29T05:37:32.016Z,12.46
2022-08-29T05:39:58.477Z,12.39
2022-08-29T05:42:26.360Z,11.87
2022-08-29T05:44:52.767Z,11.89
2022-08-29T05:47:19.354Z,11.78
2022-08-29T05:49:45.962Z,11.76
2022-08-29T05:52:12.702Z,11.82
2022-08-29T05:54:39.378Z,11.89
2022-08-29T05:57:06.167Z,12.01
2022-08-29T05:59:32.628Z,12.18
2022-08-29T06:01:58.979Z,12.33
2022-08-29T06:04:25.460Z,12.35
2022-08-29T06:06:51.814Z,12.48
2022-08-29T06:09:18.212Z,12.23
2022-08-29T06:11:48.386Z,12.19
2022-08-29T06:14:15.007Z,12.47
2022-08-29T06:16:41.357Z,12.45
2022-08-29T06:19:07.771Z,12.45
2022-08-29T06:21:34.132Z,12.44
2022-08-29T06:24:00.501Z,12.33
2022-08-29T06:26:26.883Z,12.46
2022-08-29T06:28:53.353Z,12.59
2022-08-29T06:31:21.460Z,12.68
2022-08-29T06:33:49.978Z,12.67
2022-08-29T06:36:16.415Z,12.86
2022-08-29T06:38:42.812Z,13.02
2022-08-29T06:41:10.423Z,13.14
2022-08-29T06:43:36.786Z,13.41
2022-08-29T06:46:03.341Z,13.70
2022-08-29T06:48:29.865Z,14.03
2022-08-29T06:50:56.362Z,14.07
2022-08-29T06:53:31.827Z,14.04
2022-08-29T06:56:03.087Z,14.08
2022-08-29T06:58:29.475Z,14.15
2022-08-29T07:00:55.832Z,14.39
2022-08-29T07:03:23.008Z,14.68
2022-08-29T07:05:53.405Z,14.76
2022-08-29T07:08:19.922Z,14.86
2022-08-29T07:10:46.427Z,14.68
2022-08-29T07:13:12.790Z,14.66
2022-08-29T07:15:39.181Z,14.57
2022-08-29T07:18:05.608Z,14.84
2022-08-29T07:20:32.015Z,15.07
2022-08-29T07:22:58.376Z,15.27
2022-08-29T07:25:24.941Z,15.29
2022-08-29T07:27:53.300Z,15.27
2022-08-29T07:30:20.711Z,15.44
2022-08-29T07:32:47.124Z,15.37
2022-08-29T07:35:13.757Z,15.30
2022-08-29T07:37:40.247Z,15.55
2022-08-29T07:40:07.481Z,15.67
2022-08-29T07:42:37.091Z,15.52
2022-08-29T07:45:07.081Z,15.66
2022-08-29T07:47:34.749Z,15.67
2022-08-29T07:50:04.960Z,15.76
2022-08-29T07:52:31.343Z,16.41
2022-08-29T07:54:57.754Z,16.34
2022-08-29T07:57:24.262Z,16.11
2022-08-29T07:59:50.672Z,16.15
2022-08-29T08:02:17.192Z,16.15
2022-08-29T08:04:43.643Z,16.23
2022-08-29T08:07:14.029Z,16.69
2022-08-29T08:09:41.310Z,16.58
2022-08-29T08:12:08.574Z,16.67
2022-08-29T08:14:35.364Z,16.86
2022-08-29T08:17:01.800Z,16.78
2022-08-29T08:19:28.207Z,16.96
2022-08-29T08:21:54.588Z,17.06
2022-08-29T08:24:20.987Z,17.27
2022-08-29T08:26:48.458Z,17.11
2022-08-29T08:29:14.874Z,17.25
2022-08-29T08:31:44.729Z,17.21
2022-08-29T08:34:13.621Z,17.40
2022-08-29T08:36:42.681Z,17.35
2022-08-29T08:39:09.051Z,17.41
2022-08-29T08:41:46.814Z,17.51
2022-08-29T08:44:14.752Z,17.86
2022-08-29T08:46:42.032Z,17.82
2022-08-29T08:49:16.745Z,17.56
2022-08-29T08:51:43.721Z,17.49
2022-08-29T08:54:12.343Z,17.39
2022-08-29T08:56:39.027Z,17.42
2022-08-29T08:59:07.657Z,17.77
2022-08-29T09:01:34.907Z,18.16
2022-08-29T09:04:13.919Z,18.62
2022-08-29T09:06:53.286Z,18.27
2022-08-29T09:09:22.691Z,18.48
2022-08-29T09:11:56.160Z,18.71
2022-08-29T09:14:34.810Z,18.39
2022-08-29T09:17:01.202Z,18.27
2022-08-29T09:19:27.581Z,18.05
2022-08-29T09:21:55.314Z,18.34
2022-08-29T09:24:35.800Z,18.06
2022-08-29T09:27:02.379Z,17.91
2022-08-29T09:29:29.558Z,18.02
2022-08-29T09:32:10.131Z,18.30
2022-08-29T09:35:04.356Z,18.46
2022-08-29T09:37:31.343Z,18.57
2022-08-29T09:39:59.124Z,18.68
2022-08-29T09:42:29.101Z,18.68
2022-08-29T09:44:56.123Z,18.49
2022-08-29T09:47:23.811Z,18.66
2022-08-29T09:50:10.754Z,18.61
2022-08-29T09:52:37.973Z,18.67
2022-08-29T09:55:19.764Z,18.61
2022-08-29T09:57:49.903Z,18.79
2022-08-29T10:00:17.475Z,18.72
2022-08-29T10:02:43.921Z,18.77
2022-08-29T10:05:13.276Z,18.97
2022-08-29T10:07:46.868Z,19.31
2022-08-29T10:10:20.614Z,19.56
2022-08-29T10:12:52.396Z,19.39
2022-08-29T10:15:46.623Z,19.66
2022-08-29T10:18:32.587Z,20.61
2022-08-29T10:20:59.047Z,20.37
2022-08-29T10:23:45.449Z,19.92
2022-08-29T10:26:21.208Z,19.85
2022-08-29T10:28:57.304Z,19.81
2022-08-29T10:31:30.052Z,19.68
2022-08-29T10:34:09.603Z,19.90
2022-08-29T10:36:37.512Z,20.09
2022-08-29T10:39:17.271Z,20.00
2022-08-29T10:41:50.261Z,19.90
2022-08-29T10:44:19.627Z,20.04
2022-08-29T10:47:01.242Z,19.83
2022-08-29T10:49:46.633Z,20.27
2022-08-29T10:52:22.400Z,20.12
2022-08-29T10:55:10.748Z,20.27
2022-08-29T10:57:37.266Z,20.13
2022-08-29T11:00:08.593Z,20.58
2022-08-29T11:02:37.312Z,20.44
2022-08-29T11:05:06.951Z,20.44
2022-08-29T11:07:34.643Z,20.86
2022-08-29T11:10:03.396Z,20.29
2022-08-29T11:12:33.279Z,20.27
2022-08-29T11:15:00.603Z,20.50
2022-08-29T11:17:29.760Z,20.47
2022-08-29T11:20:09.433Z,20.44
2022-08-29T11:22:37.018Z,20.19
2022-08-29T11:25:05.888Z,20.31
2022-08-29T11:27:34.746Z,20.34
2022-08-29T11:30:02.940Z,20.54
2022-08-29T11:32:39.601Z,20.63
2022-08-29T11:35:15.065Z,20.64
2022-08-29T11:37:41.430Z,20.54
2022-08-29T11:40:15.316Z,20.89
2022-08-29T11:42:57.496Z,20.72
2022-08-29T11:45:35.343Z,20.61
2022-08-29T11:48:17.129Z,20.68
2022-08-29T11:50:43.514Z,20.22
2022-08-29T11:53:16.852Z,20.12
2022-08-29T11:55:43.880Z,20.41
2022-08-29T11:58:16.410Z,20.34
2022-08-29T12:00:54.795Z,20.39
2022-08-29T12:03:34.079Z,20.68
2022-08-29T12:06:19.111Z,20.79
2022-08-29T12:09:00.688Z,20.98
2022-08-29T12:11:48.263Z,20.76
2022-08-29T12:14:37.958Z,20.36
2022-08-29T12:17:51.203Z,20.48
2022-08-29T12:20:17.025Z,21.62
2022-08-29T12:22:49.505Z,22.02
2022-08-29T12:25:28.161Z,22.90
2022-08-29T12:28:00.208Z,23.45
2022-08-29T12:30:27.005Z,23.19
2022-08-29T12:32:56.864Z,22.22
2022-08-29T12:35:46.365Z,21.63
2022-08-29T12:38:22.819Z,21.51
2022-08-29T12:40:52.208Z,21.38
2022-08-29T12:43:33.409Z,21.67
2022-08-29T12:45:59.904Z,21.89
2022-08-29T12:48:33.457Z,21.94
2022-08-29T12:51:00.773Z,22.10
2022-08-29T12:53:29.832Z,21.96
2022-08-29T12:55:57.167Z,21.94
2022-08-29T12:58:31.105Z,22.01
2022-08-29T13:00:57.579Z,21.83
2022-08-29T13:03:24.250Z,21.55
2022-08-29T13:05:50.623Z,21.24
2022-08-29T13:08:30.192Z,21.39
2022-08-29T13:11:00.991Z,21.67
2022-08-29T13:13:27.393Z,22.13
2022-08-29T13:15:54.521Z,22.16
2022-08-29T13:18:21.392Z,22.33
2022-08-29T13:21:03.159Z,22.25
2022-08-29T13:23:29.545Z,22.25
2022-08-29T13:25:55.913Z,22.27
2022-08-29T13:28:29.689Z,22.33
2022-08-29T13:31:11.349Z,22.48
2022-08-29T13:33:38.544Z,22.29
2022-08-29T13:36:23.703Z,22.23
2022-08-29T13:39:09.997Z,21.93
2022-08-29T13:41:37.541Z,22.14
2022-08-29T13:44:03.942Z,22.28
2022-08-29T13:46:30.634Z,22.62
2022-08-29T13:48:57.853Z,23.01
2022-08-29T13:51:24.243Z,23.37
2022-08-29T13:53:53.694Z,23.48
2022-08-29T13:56:28.964Z,22.62
2022-08-29T13:58:58.381Z,22.94
2022-08-29T14:02:08.426Z,22.95
2022-08-29T14:04:36.767Z,23.25
2022-08-29T14:06:57.825Z,22.67
2022-08-29T14:09:37.350Z,22.57
2022-08-29T14:12:04.053Z,23.30
2022-08-29T14:14:30.436Z,23.95
2022-08-29T14:16:56.972Z,24.47
2022-08-29T14:19:23.662Z,23.57
2022-08-29T14:21:50.183Z,23.25
2022-08-29T14:24:16.675Z,23.07
2022-08-29T14:26:43.058Z,22.99
2022-08-29T14:29:09.422Z,23.08
2022-08-29T14:31:36.120Z,23.73
2022-08-29T14:34:02.547Z,24.22
2022-08-29T14:36:30.251Z,23.88
2022-08-29T14:38:56.717Z,23.81
2022-08-29T14:41:23.157Z,23.71
2022-08-29T14:43:49.536Z,23.51
2022-08-29T14:46:15.985Z,23.01
2022-08-29T14:48:42.421Z,22.91
2022-08-29T14:51:08.774Z,22.99
2022-08-29T14:53:47.012Z,23.03
2022-08-29T14:56:44.741Z,22.70
2022-08-29T14:59:09.244Z,22.79
2022-08-29T15:01:35.719Z,22.88
2022-08-29T15:04:02.205Z,22.79
2022-08-29T15:06:28.781Z,22.88
2022-08-29T15:08:55.187Z,22.93
2022-08-29T15:11:21.555Z,22.65
2022-08-29T15:13:47.940Z,22.83
2022-08-29T15:16:14.459Z,22.63
2022-08-29T15:19:24.890Z,22.43
2022-08-29T15:21:27.250Z,22.61
2022-08-29T15:23:53.613Z,22.63
2022-08-29T15:26:20.070Z,22.84
2022-08-29T15:28:46.432Z,22.94
2022-08-29T15:31:13.215Z,23.05
2022-08-29T15:33:39.696Z,23.22
2022-08-29T15:36:06.169Z,23.24
2022-08-29T15:38:32.548Z,23.27
2022-08-29T15:40:58.952Z,23.23
2022-08-29T15:43:25.397Z,22.96
2022-08-29T15:45:57.274Z,23.00
2022-08-29T15:48:25.642Z,22.71
2022-08-29T15:50:52.343Z,22.56
2022-08-29T15:53:18.899Z,22.31
2022-08-29T15:55:45.271Z,22.30
2022-08-29T15:58:11.703Z,22.18
2022-08-29T16:00:38.107Z,22.21
2022-08-29T16:03:04.629Z,22.14
2022-08-29T16:05:31.464Z,22.15
2022-08-29T16:07:57.847Z,21.94
2022-08-29T16:10:24.209Z,21.76
2022-08-29T16:12:50.589Z,21.90
2022-08-29T16:15:17.075Z,21.97
2022-08-29T16:17:43.472Z,21.67
2022-08-29T16:20:11.417Z,21.63
2022-08-29T16:22:38.440Z,21.69
2022-08-29T16:25:06.617Z,21.55
2022-08-29T16:27:33.060Z,21.50
2022-08-29T16:29:59.421Z,21.46
2022-08-29T16:32:25.852Z,21.31
2022-08-29T16:34:52.381Z,21.28
2022-08-29T16:37:18.959Z,21.31
2022-08-29T16:39:45.699Z,21.25
2022-08-29T16:42:12.242Z,21.17
2022-08-29T16:47:05.141Z,21.09
2022-08-29T16:49:31.640Z,20.99
2022-08-29T16:51:58.095Z,20.90
2022-08-29T16:54:24.477Z,20.82
2022-08-29T16:56:51.847Z,20.77
2022-08-29T16:59:18.241Z,20.81
2022-08-29T17:01:45.755Z,20.78
2022-08-29T17:04:13.194Z,20.51
2022-08-29T17:06:39.595Z,20.26
2022-08-29T17:09:09.908Z,20.02
2022-08-29T17:11:37.083Z,19.79
2022-08-29T17:14:03.679Z,19.57
2022-08-29T17:16:30.099Z,19.42
2022-08-29T17:18:56.571Z,19.48
2022-08-29T17:21:22.959Z,19.36
2022-08-29T17:23:49.829Z,19.12
2022-08-29T17:26:16.512Z,19.17
2022-08-29T17:28:42.924Z,19.22
2022-08-29T17:31:09.486Z,18.98
2022-08-29T17:33:36.036Z,18.91
2022-08-29T17:36:03.111Z,18.75
2022-08-29T17:38:31.039Z,18.58
2022-08-29T17:41:01.293Z,18.42
2022-08-29T17:43:31.189Z,18.46
2022-08-29T17:45:57.738Z,18.28
2022-08-29T17:48:24.172Z,18.22
2022-08-29T17:50:50.578Z,18.30
2022-08-29T17:53:17.093Z,18.20
2022-08-29T17:55:43.498Z,18.06
2022-08-29T17:58:09.867Z,17.98
2022-08-29T18:00:36.373Z,17.93
2022-08-29T18:03:03.650Z,17.82
2022-08-29T18:05:30.018Z,17.83
2022-08-29T18:07:57.059Z,17.75
2022-08-29T18:10:23.504Z,17.62
2022-08-29T18:12:49.865Z,17.40
2022-08-29T18:15:16.547Z,17.37
2022-08-29T18:17:45.222Z,17.27
2022-08-29T18:20:12.221Z,17.30
2022-08-29T18:22:39.701Z,17.33
2022-08-29T18:25:06.871Z,17.30
2022-08-29T18:27:33.739Z,17.10
2022-08-29T18:30:01.982Z,17.09
2022-08-29T18:32:28.492Z,17.18
2022-08-29T18:35:03.117Z,17.21
2022-08-29T18:37:29.533Z,17.37
2022-08-29T18:39:55.935Z,17.20
2022-08-29T18:42:39.397Z,17.16
2022-08-29T18:45:06.334Z,17.17
2022-08-29T18:47:32.802Z,17.20
2022-08-29T18:50:17.964Z,17.25
2022-08-29T18:52:45.912Z,17.18
2022-08-29T18:55:15.712Z,17.27
2022-08-29T18:57:44.923Z,17.04
2022-08-29T19:00:11.574Z,16.84
2022-08-29T19:02:38.042Z,16.72
2022-08-29T19:05:05.043Z,16.70
2022-08-29T19:07:32.427Z,16.69
2022-08-29T19:09:58.785Z,16.54
2022-08-29T19:12:25.142Z,16.57
2022-08-29T19:14:51.512Z,16.56
2022-08-29T19:17:17.883Z,16.51
2022-08-29T19:20:03.060Z,16.51
2022-08-29T19:22:38.157Z,16.48
2022-08-29T19:25:05.713Z,16.44
2022-08-29T19:27:42.805Z,16.38
2022-08-29T19:30:11.036Z,16.41
2022-08-29T19:32:37.434Z,16.33
2022-08-29T19:35:03.925Z,16.25
2022-08-29T19:37:30.321Z,16.21
2022-08-29T19:39:56.891Z,16.22
2022-08-29T19:42:23.939Z,16.20
2022-08-29T19:44:50.398Z,16.22
2022-08-29T19:47:16.771Z,16.15
2022-08-29T19:49:45.362Z,16.10
2022-08-29T19:52:11.991Z,16.08
2022-08-29T19:54:39.058Z,16.02
2022-08-29T19:57:10.317Z,15.93
2022-08-29T19:59:42.280Z,15.90
2022-08-29T20:02:10.025Z,15.91
2022-08-29T20:04:36.506Z,16.03
2022-08-29T20:07:02.889Z,16.08
2022-08-29T20:09:29.808Z,16.04
2022-08-29T20:11:56.802Z,16.06
2022-08-29T20:14:23.253Z,16.14
2022-08-29T20:16:49.656Z,16.16
2022-08-29T20:19:18.845Z,16.10
2022-08-29T20:21:45.721Z,16.20
2022-08-29T20:24:13.635Z,16.16
2022-08-29T20:26:42.781Z,16.19
2022-08-29T20:29:10.405Z,16.21
2022-08-29T20:31:36.921Z,16.34
2022-08-29T20:34:03.486Z,16.25
2022-08-29T20:36:48.550Z,16.24
2022-08-29T20:39:16.092Z,16.15
2022-08-29T20:41:42.484Z,16.14
2022-08-29T20:44:10.129Z,15.99
2022-08-29T20:46:40.421Z,15.95
2022-08-29T20:49:07.342Z,16.02
2022-08-29T20:51:35.070Z,15.83
2022-08-29T20:54:01.496Z,15.76
2022-08-29T20:56:27.880Z,15.88
2022-08-29T20:58:54.263Z,15.87
2022-08-29T21:01:21.399Z,15.85
2022-08-29T21:04:08.521Z,15.87
2022-08-29T21:06:35.550Z,15.93
2022-08-29T21:09:01.939Z,15.93
2022-08-29T21:11:28.294Z,16.02
2022-08-29T21:13:55.352Z,16.26
2022-08-29T21:16:21.856Z,16.11
2022-08-29T21:18:52.408Z,16.13
2022-08-29T21:21:20.343Z,16.20
2022-08-29T21:23:48.571Z,16.15
2022-08-29T21:26:14.980Z,16.09
2022-08-29T21:28:43.338Z,16.14
2022-08-29T21:31:12.441Z,16.17
2022-08-29T21:33:39.453Z,16.34
2022-08-29T21:36:09.710Z,16.46
2022-08-29T21:38:36.079Z,16.57
2022-08-29T21:41:02.534Z,16.73
2022-08-29T21:43:28.957Z,16.68
2022-08-29T21:45:55.429Z,16.62
2022-08-29T21:48:21.891Z,16.61
2022-08-29T21:50:53.435Z,16.45
2022-08-29T21:53:20.121Z,16.35
2022-08-29T21:55:46.487Z,16.37
2022-08-29T21:58:13.403Z,16.13
2022-08-29T22:00:42.025Z,16.21
2022-08-29T22:03:08.959Z,16.25
2022-08-29T22:05:35.447Z,15.92
2022-08-29T22:08:06.573Z,15.84
2022-08-29T22:10:33.948Z,15.73
2022-08-29T22:13:00.340Z,15.73
2022-08-29T22:15:45.442Z,15.79
2022-08-29T22:18:14.549Z,15.55
2022-08-29T22:20:41.484Z,15.95
2022-08-29T22:23:07.953Z,15.51
2022-08-29T22:25:34.387Z,15.37
2022-08-29T22:28:00.775Z,15.28
2022-08-29T22:30:32.096Z,15.22
2022-08-29T22:33:00.066Z,15.17
2022-08-29T22:35:27.550Z,15.11
2022-08-29T22:37:54.564Z,15.07
2022-08-29T22:40:21.282Z,15.13
2022-08-29T22:42:47.764Z,14.86
2022-08-29T22:45:14.895Z,14.81
2022-08-29T22:47:41.602Z,14.80
2022-08-29T22:50:10.204Z,14.90
2022-08-29T22:52:36.642Z,14.95
2022-08-29T22:55:04.863Z,14.87
2022-08-29T22:57:31.248Z,14.82
2022-08-29T22:59:57.643Z,14.77
2022-08-29T23:02:24.290Z,14.99
2022-08-29T23:04:50.991Z,15.08
2022-08-29T23:07:17.351Z,15.03
2022-08-29T23:09:43.727Z,14.99
2022-08-29T23:12:10.258Z,14.95
2022-08-29T23:14:37.287Z,15.00
2022-08-29T23:17:04.343Z,14.84
2022-08-29T23:19:31.118Z,14.75
2022-08-29T23:21:58.004Z,14.61
2022-08-29T23:24:26.217Z,14.53
2022-08-29T23:26:52.628Z,14.36
2022-08-29T23:29:19.504Z,14.29
2022-08-29T23:31:46.279Z,14.24
2022-08-29T23:34:12.812Z,14.40
2022-08-29T23:36:39.195Z,14.44
2022-08-29T23:39:05.812Z,14.49
2022-08-29T23:41:32.219Z,14.41
2022-08-29T23:43:58.875Z,14.38
2022-08-29T23:46:25.292Z,14.44
2022-08-29T23:48:51.711Z,14.60
2022-08-29T23:51:18.100Z,14.54
2022-08-29T23:53:44.558Z,14.51
2022-08-29T23:56:12.333Z,14.52
2022-08-29T23:58:38.860Z,14.45
